Terminal Aerodrome Forecast
Issued by NWS

Home | Current Version | Previous Version | Text Only | Print | Product List | Glossary On
Versions: 1 2 3 4 5 6 7 8 9 10 11 12 13 14 15 16 17 18
000
FTUS43 KABR 290745 AAA
TAFATY
TAF AMD
KATY 290745Z 2908/3006 08011KT P6SM RA OVC070
     FM291000 33008KT P6SM OVC007
     FM291600 35018G26KT P6SM OVC015
     FM292000 35019G26KT P6SM BKN250
     FM300200 36009KT P6SM SKC=

USA.gov is the U.S. government's official web portal to all federal, state and local government web resources and services.